Time;durP1;ratioP1;P1;durP2;ratioP2;P2;SDS_P1;SDS_P2;PMS_P1;PMS_P2;Temp;Humidity;BMP_temperature;BMP_pressure;BME280_temperature;BME280_humidity;BME280_pressure;Samples;Min_cycle;Max_cycle;Signal;HPM_P1;HPM_P2
2023/04/23 00:01:25;;;;;;;10.20;8.50;;;;;;;14.13;65.18;99599.22;5072439;28;20044;-77
2023/04/23 00:03:56;;;;;;;11.27;10.02;;;;;;;14.08;65.17;99593.63;5072892;28;20025;-77
2023/04/23 00:06:25;;;;;;;11.68;8.95;;;;;;;13.69;65.15;99541.25;5072642;28;20028;-76
2023/04/23 00:08:52;;;;;;;10.48;9.38;;;;;;;14.03;65.04;99592.59;5072432;28;20021;-76
2023/04/23 00:11:18;;;;;;;9.65;8.70;;;;;;;14.03;65.04;99592.59;5072257;28;20016;-76
2023/04/23 00:13:45;;;;;;;10.18;9.18;;;;;;;13.59;65.37;99540.78;5072432;28;20569;-76
2023/04/23 00:16:12;;;;;;;11.48;9.63;;;;;;;13.95;65.27;99593.59;5072604;28;20435;-77
2023/04/23 00:18:37;;;;;;;9.27;8.38;;;;;;;13.97;65.11;99599.53;5072569;28;20482;-76
2023/04/23 00:21:02;;;;;;;11.55;10.35;;;;;;;13.45;65.21;99528.47;5070794;28;20107;-76
2023/04/23 00:23:28;;;;;;;10.07;9.18;;;;;;;13.45;65.27;99531.94;5072088;28;20056;-78
2023/04/23 00:25:53;;;;;;;9.40;8.50;;;;;;;13.39;65.19;99529.28;5072192;28;20496;-76
2023/04/23 00:28:19;;;;;;;10.50;9.50;;;;;;;13.54;65.25;99559.13;5072213;28;20096;-76
2023/04/23 00:30:45;;;;;;;10.18;9.27;;;;;;;13.30;65.23;99529.41;5072099;28;20047;-76
2023/04/23 00:33:10;;;;;;;12.10;10.23;;;;;;;13.35;64.86;99536.75;5070844;28;20031;-77
2023/04/23 00:35:36;;;;;;;12.25;9.48;;;;;;;13.80;64.88;99600.88;5070660;28;20051;-76
2023/04/23 00:38:01;;;;;;;11.57;9.85;;;;;;;13.56;64.74;99565.88;5071811;28;20103;-77
2023/04/23 00:40:26;;;;;;;9.38;8.43;;;;;;;13.75;64.67;99601.47;5071677;28;20027;-76
2023/04/23 00:42:52;;;;;;;12.82;9.05;;;;;;;13.65;64.57;99577.13;5071706;28;20497;-77
2023/04/23 00:45:18;;;;;;;11.70;9.68;;;;;;;13.21;64.38;99519.97;5071903;28;20112;-78
2023/04/23 00:47:45;;;;;;;11.48;9.15;;;;;;;13.14;64.15;99515.63;5071786;28;20025;-76
2023/04/23 00:50:11;;;;;;;12.60;10.13;;;;;;;13.32;64.04;99547.75;5070587;28;20428;-77
2023/04/23 00:52:39;;;;;;;12.00;8.23;;;;;;;13.54;63.61;99601.56;5071746;28;20020;-77
2023/04/23 00:55:05;;;;;;;11.50;8.15;;;;;;;13.57;64.09;99603.84;5071478;28;20020;-76
2023/04/23 00:57:31;;;;;;;12.32;9.30;;;;;;;13.34;64.00;99570.41;5071492;28;20024;-77
2023/04/23 00:59:58;;;;;;;10.35;8.95;;;;;;;13.54;63.76;99602.38;5071422;28;20425;-77
2023/04/23 01:02:26;;;;;;;10.32;8.73;;;;;;;12.93;63.56;99524.44;5071476;28;20020;-77
2023/04/23 01:04:53;;;;;;;13.00;6.80;;;;;;;13.24;63.42;99571.78;5070324;28;20111;-76
2023/04/23 01:07:20;;;;;;;10.38;7.97;;;;;;;13.27;63.14;99580.16;5071748;28;20028;-77
2023/04/23 01:09:45;;;;;;;9.73;7.43;;;;;;;12.94;62.93;99529.56;5070196;28;20012;-76
2023/04/23 01:12:12;;;;;;;9.43;6.82;;;;;;;13.22;62.88;99574.63;5071571;28;20028;-77
2023/04/23 01:14:38;;;;;;;7.90;7.00;;;;;;;12.99;63.14;99547.53;5071546;28;20028;-77
2023/04/23 01:17:04;;;;;;;11.02;6.75;;;;;;;13.11;62.69;99575.13;5070160;28;20020;-76
2023/04/23 01:19:30;;;;;;;9.32;7.18;;;;;;;13.01;62.68;99556.94;5071373;28;20112;-78
2023/04/23 01:21:59;;;;;;;11.98;8.25;;;;;;;13.40;62.67;99618.44;5071398;28;20154;-76
2023/04/23 01:24:26;;;;;;;8.48;6.65;;;;;;;13.38;62.64;99608.00;5071644;28;20023;-76
2023/04/23 01:26:52;;;;;;;9.27;6.97;;;;;;;12.90;62.52;99532.78;5071258;28;20048;-76
2023/04/23 01:29:18;;;;;;;11.15;7.05;;;;;;;13.41;62.33;99606.81;5071632;28;20032;-77
2023/04/23 01:31:44;;;;;;;9.77;6.90;;;;;;;13.26;61.98;99594.44;5071318;28;20147;-77
2023/04/23 01:34:10;;;;;;;10.43;6.50;;;;;;;13.30;61.78;99613.44;5071261;28;20107;-76
2023/04/23 01:36:36;;;;;;;6.82;6.13;;;;;;;12.46;61.92;99490.66;5069800;28;20032;-76
2023/04/23 01:39:02;;;;;;;10.75;6.63;;;;;;;13.00;61.79;99563.25;5071167;28;20440;-77
2023/04/23 01:41:27;;;;;;;9.52;6.63;;;;;;;13.29;61.56;99609.16;5071305;28;20023;-77
2023/04/23 01:43:53;;;;;;;13.07;6.88;;;;;;;12.73;61.45;99524.31;5071098;28;20025;-77
2023/04/23 01:46:20;;;;;;;14.48;6.50;;;;;;;13.34;61.39;99615.50;5071301;28;20052;-77
2023/04/23 01:48:45;;;;;;;10.85;6.22;;;;;;;13.24;61.45;99600.94;5069788;28;20027;-76
2023/04/23 01:51:11;;;;;;;10.07;6.82;;;;;;;12.97;61.38;99566.28;5071061;28;20017;-77
2023/04/23 01:53:36;;;;;;;8.77;5.80;;;;;;;13.19;61.46;99606.00;5070872;28;20059;-77
2023/04/23 01:56:04;;;;;;;9.18;6.15;;;;;;;13.23;61.34;99625.81;5070967;28;20021;-76
2023/04/23 01:58:29;;;;;;;11.43;6.88;;;;;;;13.22;61.69;99625.00;5070948;28;20043;-77
2023/04/23 02:00:55;;;;;;;8.57;6.55;;;;;;;12.68;61.02;99543.44;5071138;28;20029;-77
2023/04/23 02:03:20;;;;;;;10.75;5.72;;;;;;;12.96;60.79;99591.13;5071053;28;20024;-78
2023/04/23 02:05:47;;;;;;;15.00;6.32;;;;;;;13.17;60.92;99632.72;5071024;28;20031;-77
2023/04/23 02:08:12;;;;;;;9.00;5.80;;;;;;;12.83;60.73;99582.25;5071094;28;20031;-77
2023/04/23 02:10:37;;;;;;;9.82;6.30;;;;;;;13.11;60.79;99632.63;5071092;28;20028;-77
2023/04/23 02:13:03;;;;;;;8.00;6.15;;;;;;;12.83;61.09;99601.63;5070839;28;20749;-77
2023/04/23 02:15:29;;;;;;;13.07;6.03;;;;;;;12.42;60.80;99537.88;5070606;28;20095;-77
2023/04/23 02:17:54;;;;;;;12.95;6.20;;;;;;;12.81;60.83;99603.66;5070779;28;20025;-77
2023/04/23 02:20:21;;;;;;;8.27;5.93;;;;;;;12.96;60.97;99636.19;5069551;28;20024;-78
2023/04/23 02:22:48;;;;;;;9.65;6.28;;;;;;;12.55;61.01;99572.41;5071858;28;20024;-76
2023/04/23 02:25:15;;;;;;;8.05;6.10;;;;;;;12.98;60.79;99636.81;5074330;28;20073;-76
2023/04/23 02:27:41;;;;;;;15.25;7.00;;;;;;;12.35;60.55;99531.69;5073599;28;20028;-77
2023/04/23 02:30:08;;;;;;;12.68;7.13;;;;;;;13.00;60.62;99644.59;5074502;28;20413;-77
2023/04/23 02:32:34;;;;;;;12.80;6.93;;;;;;;12.94;60.59;99632.91;5074364;28;20024;-77
2023/04/23 02:35:01;;;;;;;9.82;6.75;;;;;;;12.56;60.62;99576.72;5074540;28;20028;-77
2023/04/23 02:37:27;;;;;;;10.20;6.30;;;;;;;12.84;60.74;99631.59;5074338;28;20032;-76
2023/04/23 02:39:52;;;;;;;8.80;6.68;;;;;;;12.38;60.89;99565.75;5074295;28;20024;-77
2023/04/23 02:42:17;;;;;;;9.18;6.68;;;;;;;12.45;61.03;99566.63;5074177;28;20497;-77
2023/04/23 02:44:43;;;;;;;12.60;6.85;;;;;;;12.55;60.91;99579.53;5072774;28;20582;-76
2023/04/23 02:47:08;;;;;;;10.10;6.80;;;;;;;12.90;61.09;99642.25;5074053;28;20033;-76
2023/04/23 02:49:34;;;;;;;12.25;7.15;;;;;;;12.42;60.92;99553.75;5074195;28;20444;-76
2023/04/23 02:51:59;;;;;;;12.95;6.85;;;;;;;12.82;60.74;99617.72;5074039;28;20105;-77
2023/04/23 02:54:25;;;;;;;13.45;7.30;;;;;;;12.42;60.92;99559.06;5073935;28;20158;-76
2023/04/23 02:56:50;;;;;;;14.20;8.38;;;;;;;12.79;60.84;99624.22;5073971;28;20021;-77
2023/04/23 02:59:15;;;;;;;11.63;7.43;;;;;;;12.80;60.54;99619.75;5074119;28;20048;-76
2023/04/23 03:01:41;;;;;;;12.10;7.68;;;;;;;12.68;60.85;99611.47;5072579;28;20035;-77
2023/04/23 03:04:06;;;;;;;9.55;7.30;;;;;;;12.88;60.79;99643.47;5073713;28;20029;-76
2023/04/23 03:06:34;;;;;;;14.10;8.25;;;;;;;12.54;60.81;99586.69;5089231;28;20028;-77
2023/04/23 03:09:00;;;;;;;11.20;7.38;;;;;;;12.85;60.83;99627.94;5073786;28;20035;-77
2023/04/23 03:11:25;;;;;;;13.13;7.60;;;;;;;12.84;60.48;99640.38;5073789;28;20020;-76
2023/04/23 03:13:51;;;;;;;20.30;12.85;;;;;;;12.74;60.45;99623.97;5072287;28;20512;-77
2023/04/23 03:16:16;;;;;;;16.42;9.18;;;;;;;12.47;60.39;99580.50;5073477;28;20036;-76
2023/04/23 03:18:41;;;;;;;15.00;8.30;;;;;;;12.47;60.42;99574.38;5074167;28;20036;-77
2023/04/23 03:21:07;;;;;;;14.43;7.20;;;;;;;12.44;60.13;99588.81;5073448;28;20024;-76
2023/04/23 03:23:32;;;;;;;11.40;7.43;;;;;;;12.57;60.54;99604.84;5073388;28;20040;-77
2023/04/23 03:25:57;;;;;;;13.40;8.10;;;;;;;12.88;60.67;99662.00;5073139;28;20053;-77
2023/04/23 03:28:23;;;;;;;12.13;7.30;;;;;;;12.41;60.67;99586.53;5072030;28;20023;-76
2023/04/23 03:30:49;;;;;;;17.05;8.73;;;;;;;12.86;60.55;99661.38;5073341;28;20025;-76
2023/04/23 03:33:14;;;;;;;15.00;7.70;;;;;;;12.77;60.56;99649.25;5072985;28;20490;-75
2023/04/23 03:35:40;;;;;;;10.50;7.20;;;;;;;12.39;61.07;99591.22;5073194;28;20020;-78
2023/04/23 03:38:05;;;;;;;11.43;7.75;;;;;;;12.73;60.35;99644.34;5073089;28;20054;-77
2023/04/23 03:40:30;;;;;;;12.13;7.70;;;;;;;12.20;60.38;99558.25;5073403;28;20499;-78
2023/04/23 03:42:56;;;;;;;10.68;7.55;;;;;;;12.29;60.59;99582.75;5073146;28;20077;-75
2023/04/23 03:45:22;;;;;;;14.82;7.25;;;;;;;12.79;60.73;99665.78;5072874;28;20390;-77
2023/04/23 03:47:47;;;;;;;10.25;7.10;;;;;;;12.71;60.89;99643.72;5072784;28;20092;-77
2023/04/23 03:50:13;;;;;;;14.82;6.80;;;;;;;12.79;60.95;99661.31;5073041;28;20032;-77
2023/04/23 03:52:39;;;;;;;11.15;7.03;;;;;;;12.29;60.88;99588.06;5072863;28;20100;-79
2023/04/23 03:55:05;;;;;;;9.82;7.00;;;;;;;12.11;60.88;99561.19;5072938;28;20075;-77
2023/04/23 03:57:30;;;;;;;12.85;7.75;;;;;;;12.18;61.36;99580.59;5072877;28;20036;-77
2023/04/23 03:59:56;;;;;;;12.32;7.72;;;;;;;12.77;60.92;99658.03;5072524;28;20093;-75
2023/04/23 04:02:21;;;;;;;13.45;7.82;;;;;;;12.02;61.26;99542.78;5072340;28;20034;-78
2023/04/23 04:04:48;;;;;;;12.98;7.78;;;;;;;12.22;61.45;99580.03;5072669;28;20036;-77
2023/04/23 04:07:14;;;;;;;13.18;9.10;;;;;;;12.66;61.57;99663.84;5072457;28;20056;-78
2023/04/23 04:09:39;;;;;;;14.98;7.95;;;;;;;11.64;61.60;99588.88;5072510;28;20416;-78
2023/04/23 04:12:06;;;;;;;12.63;8.05;;;;;;;12.15;61.65;99610.91;5072396;28;20016;-77
2023/04/23 04:14:32;;;;;;;14.57;8.75;;;;;;;12.46;61.81;99668.88;5072454;28;20426;-77
2023/04/23 04:16:57;;;;;;;17.75;10.95;;;;;;;12.64;61.81;99695.81;5072358;28;20029;-78
2023/04/23 04:19:23;;;;;;;15.88;9.95;;;;;;;11.71;61.83;99558.84;5072405;28;20035;-79
2023/04/23 04:21:48;;;;;;;13.48;10.25;;;;;;;12.17;61.85;99638.03;5072263;28;20217;-77
2023/04/23 04:24:14;;;;;;;14.88;10.88;;;;;;;12.61;61.90;99693.50;5072077;28;20033;-77
2023/04/23 04:26:40;;;;;;;16.17;10.43;;;;;;;12.20;61.91;99634.19;5071882;28;20056;-78
2023/04/23 04:29:05;;;;;;;18.15;12.30;;;;;;;12.23;61.99;99617.94;5072235;28;20028;-77
2023/04/23 04:31:31;;;;;;;18.15;11.60;;;;;;;12.34;61.85;99641.25;5071973;28;20083;-79
2023/04/23 04:33:57;;;;;;;17.45;12.00;;;;;;;12.04;61.61;99592.88;5071985;28;20108;-77
2023/04/23 04:36:24;;;;;;;30.30;19.23;;;;;;;12.70;61.59;99708.31;5071917;28;20028;-77
2023/04/23 04:38:54;;;;;;;16.63;12.20;;;;;;;12.76;61.44;99708.56;5072147;28;20017;-77
2023/04/23 04:41:21;;;;;;;16.77;11.30;;;;;;;12.56;61.60;99673.88;5072138;28;20032;-77
2023/04/23 04:43:47;;;;;;;14.13;11.00;;;;;;;12.40;61.22;99651.94;5071968;28;20508;-77
2023/04/23 04:46:14;;;;;;;19.05;11.65;;;;;;;12.83;61.44;99731.47;5071229;28;20508;-77
2023/04/23 04:48:39;;;;;;;15.00;11.10;;;;;;;12.86;60.99;99715.19;5071917;28;20144;-77
2023/04/23 04:51:05;;;;;;;15.50;11.50;;;;;;;12.31;60.91;99637.16;5071945;28;20103;-77
2023/04/23 04:53:30;;;;;;;15.98;11.93;;;;;;;12.88;60.84;99728.25;5071746;28;20028;-78
2023/04/23 04:55:56;;;;;;;16.08;11.60;;;;;;;12.85;60.80;99718.03;5071898;28;20029;-77
2023/04/23 04:58:21;;;;;;;19.55;11.32;;;;;;;12.57;60.87;99681.66;5071590;28;20036;-78
2023/04/23 05:00:50;;;;;;;18.85;11.55;;;;;;;12.79;60.96;99724.09;5070216;28;20020;-77
2023/04/23 05:03:19;;;;;;;13.95;10.02;;;;;;;12.90;60.72;99726.25;5071492;28;20111;-77
2023/04/23 05:05:45;;;;;;;14.95;10.13;;;;;;;12.92;60.38;99725.03;5070412;28;20060;-77
2023/04/23 05:08:11;;;;;;;13.05;8.93;;;;;;;12.93;60.28;99720.56;5070258;28;20051;-78
2023/04/23 05:10:37;;;;;;;15.57;8.75;;;;;;;12.47;59.97;99630.81;5071534;28;20544;-77
2023/04/23 05:13:02;;;;;;;16.83;9.15;;;;;;;12.68;60.07;99667.94;5070064;28;20108;-77
2023/04/23 05:15:28;;;;;;;13.43;8.40;;;;;;;12.69;59.68;99668.75;5071337;28;20463;-78
2023/04/23 05:17:53;;;;;;;8.82;7.03;;;;;;;12.48;59.64;99635.09;5071393;28;20032;-77
2023/04/23 05:20:20;;;;;;;10.57;7.30;;;;;;;12.68;59.38;99672.41;5070238;28;20501;-78
2023/04/23 05:22:46;;;;;;;9.57;6.88;;;;;;;12.97;59.30;99712.03;5070123;28;20040;-77
2023/04/23 05:25:11;;;;;;;9.68;7.28;;;;;;;13.01;59.07;99723.09;5071154;28;20028;-78
2023/04/23 05:27:37;;;;;;;11.27;7.53;;;;;;;13.15;59.07;99724.03;5071251;28;20064;-77
2023/04/23 05:30:05;;;;;;;15.57;7.72;;;;;;;12.93;59.23;99686.94;5071376;28;20020;-77
2023/04/23 05:32:31;;;;;;;14.15;7.35;;;;;;;12.73;59.25;99651.47;5070042;28;20013;-77
2023/04/23 05:34:56;;;;;;;9.65;7.28;;;;;;;13.10;58.98;99716.66;5071424;28;20417;-75
2023/04/23 05:37:22;;;;;;;10.02;7.15;;;;;;;13.36;59.01;99732.81;5071259;28;20543;-77
2023/04/23 05:39:47;;;;;;;11.32;7.53;;;;;;;13.14;59.12;99696.69;5071267;28;20036;-77
2023/04/23 05:42:12;;;;;;;12.77;8.07;;;;;;;12.93;58.88;99672.84;5069795;28;20025;-77
2023/04/23 05:44:40;;;;;;;10.95;6.95;;;;;;;13.42;58.80;99749.00;5071308;28;20021;-78
2023/04/23 05:47:06;;;;;;;10.98;6.93;;;;;;;13.42;58.48;99739.22;5071188;28;20176;-77
2023/04/23 05:49:31;;;;;;;12.73;7.40;;;;;;;13.48;58.69;99734.97;5071019;28;20075;-78
2023/04/23 05:51:58;;;;;;;11.15;7.10;;;;;;;13.12;58.47;99680.16;5071088;28;20463;-74
2023/04/23 05:54:23;;;;;;;15.00;8.20;;;;;;;13.44;58.27;99723.13;5070944;28;20029;-77
2023/04/23 05:56:49;;;;;;;9.48;7.20;;;;;;;13.45;58.49;99724.75;5072221;28;20160;-78
2023/04/23 05:59:14;;;;;;;9.10;6.30;;;;;;;13.49;58.36;99723.34;5073688;28;20035;-76
2023/04/23 06:01:40;;;;;;;10.98;6.35;;;;;;;13.28;58.14;99682.56;5073571;28;20028;-78
2023/04/23 06:04:06;;;;;;;8.55;6.03;;;;;;;13.73;57.75;99738.84;5075047;28;20058;-77
2023/04/23 06:06:32;;;;;;;9.00;6.50;;;;;;;13.46;57.65;99690.06;5074942;28;20020;-77
2023/04/23 06:08:57;;;;;;;10.95;6.60;;;;;;;13.74;57.36;99721.91;5074976;28;20416;-74
2023/04/23 06:11:23;;;;;;;11.32;5.97;;;;;;;13.51;57.19;99681.53;5074997;28;20055;-77
2023/04/23 06:13:48;;;;;;;10.98;6.75;;;;;;;13.07;57.07;99602.22;5074729;28;20158;-79
2023/04/23 06:16:14;;;;;;;10.05;6.05;;;;;;;13.23;56.92;99613.38;5073760;28;20028;-77
2023/04/23 06:18:39;;;;;;;10.02;6.20;;;;;;;14.09;56.76;99740.50;5074751;28;20433;-77
2023/04/23 06:21:05;;;;;;;9.32;5.97;;;;;;;13.59;56.33;99668.13;5074436;28;20100;-77
2023/04/23 06:23:31;;;;;;;11.95;5.07;;;;;;;13.82;56.20;99697.88;5074615;28;20035;-76
2023/04/23 06:25:57;;;;;;;13.02;6.05;;;;;;;13.63;55.74;99638.34;5074522;28;20582;-76
2023/04/23 06:28:23;;;;;;;12.18;6.13;;;;;;;14.25;54.96;99740.19;5074486;28;20029;-76
2023/04/23 06:30:48;;;;;;;9.90;5.95;;;;;;;14.10;55.05;99719.06;5074665;28;20508;-78
2023/04/23 06:33:14;;;;;;;9.80;6.15;;;;;;;14.29;54.99;99744.09;5074454;28;20073;-77
2023/04/23 06:35:40;;;;;;;11.20;6.10;;;;;;;14.35;54.77;99738.00;5074338;28;20414;-78
2023/04/23 06:38:06;;;;;;;10.55;5.45;;;;;;;14.00;54.70;99684.91;5074412;28;20035;-77
2023/04/23 06:40:32;;;;;;;10.38;5.35;;;;;;;13.91;54.72;99656.88;5074388;28;20035;-78
2023/04/23 06:42:58;;;;;;;11.20;6.00;;;;;;;14.28;54.60;99687.50;5074227;28;20036;-78
2023/04/23 06:45:23;;;;;;;15.80;6.05;;;;;;;14.56;54.37;99724.63;5074224;28;20023;-77
2023/04/23 06:47:49;;;;;;;10.88;5.75;;;;;;;14.46;54.07;99702.94;5074074;28;20472;-77
2023/04/23 06:50:14;;;;;;;12.50;6.35;;;;;;;14.42;53.47;99693.72;5074152;28;20021;-77
2023/04/23 06:52:40;;;;;;;11.82;5.28;;;;;;;14.90;53.40;99760.94;5074045;28;20416;-79
2023/04/23 06:55:06;;;;;;;13.27;5.38;;;;;;;14.40;52.63;99663.84;5074074;28;20508;-77
2023/04/23 06:57:31;;;;;;;10.23;5.15;;;;;;;14.32;51.90;99656.88;5074013;28;20107;-78
2023/04/23 06:59:57;;;;;;;8.27;4.70;;;;;;;14.91;52.01;99720.03;5074026;28;20112;-77
2023/04/23 07:02:22;;;;;;;7.88;4.30;;;;;;;14.58;51.69;99658.81;5073911;28;20496;-78
2023/04/23 07:04:48;;;;;;;9.20;5.25;;;;;;;15.01;51.80;99705.53;5072541;28;20111;-78
2023/04/23 07:07:13;;;;;;;10.27;4.95;;;;;;;14.73;51.77;99649.84;5073605;28;20054;-78
2023/04/23 07:09:39;;;;;;;17.88;6.15;;;;;;;14.99;51.82;99681.81;5072806;28;20486;-78
2023/04/23 07:12:04;;;;;;;11.25;5.13;;;;;;;15.13;51.65;99696.75;5073469;28;20485;-75
2023/04/23 07:14:31;;;;;;;9.95;5.47;;;;;;;15.57;51.07;99751.19;5072475;28;20428;-77
2023/04/23 07:16:57;;;;;;;9.63;5.18;;;;;;;15.50;51.21;99732.56;5089374;28;20031;-77
2023/04/23 07:19:23;;;;;;;10.82;5.50;;;;;;;15.47;50.86;99724.19;5072458;28;20035;-77
2023/04/23 07:21:48;;;;;;;9.27;4.97;;;;;;;15.29;50.84;99689.38;5072327;28;20040;-77
2023/04/23 07:24:13;;;;;;;7.60;5.10;;;;;;;14.95;50.49;99624.75;5073631;28;20033;-76
2023/04/23 07:26:39;;;;;;;5.60;4.68;;;;;;;15.39;50.81;99697.78;5073415;28;20429;-78
2023/04/23 07:29:06;;;;;;;6.97;4.40;;;;;;;15.87;50.29;99770.28;5073549;28;20417;-77
2023/04/23 07:31:32;;;;;;;12.65;5.45;;;;;;;15.48;49.77;99689.38;5072066;28;20027;-78
2023/04/23 07:33:57;;;;;;;8.30;4.75;;;;;;;15.69;49.80;99727.50;5073291;28;20024;-78
2023/04/23 07:36:23;;;;;;;11.15;4.70;;;;;;;15.56;49.95;99696.31;5071878;28;20024;-77
2023/04/23 07:38:49;;;;;;;9.60;4.40;;;;;;;15.49;49.75;99677.72;5073130;28;20093;-78
2023/04/23 07:41:15;;;;;;;9.07;5.18;;;;;;;16.11;49.56;99756.31;5072960;28;20025;-77
2023/04/23 07:43:41;;;;;;;8.32;4.25;;;;;;;16.19;49.17;99761.41;5071650;28;20025;-78
2023/04/23 07:46:07;;;;;;;11.75;4.20;;;;;;;15.94;49.24;99701.03;5073451;28;20040;-77
2023/04/23 07:48:35;;;;;;;8.02;4.22;;;;;;;16.01;48.30;99713.31;5073370;28;20040;-77
2023/04/23 07:51:01;;;;;;;4.88;4.00;;;;;;;16.27;47.88;99743.53;5073459;28;20477;-77
2023/04/23 07:53:27;;;;;;;9.82;4.30;;;;;;;16.11;48.07;99715.53;5071683;28;20028;-77
2023/04/23 07:55:56;;;;;;;9.30;4.65;;;;;;;16.02;47.87;99698.94;5072753;28;20040;-77
2023/04/23 07:58:22;;;;;;;9.73;4.10;;;;;;;15.71;47.50;99627.78;5071558;28;20028;-78
2023/04/23 08:00:47;;;;;;;9.82;4.18;;;;;;;16.08;47.02;99681.31;5073008;28;20025;-77
2023/04/23 08:03:13;;;;;;;10.57;4.20;;;;;;;16.18;46.94;99663.03;5072014;28;20025;-77
2023/04/23 08:05:39;;;;;;;7.85;3.95;;;;;;;16.33;46.29;99684.91;5084836;28;20134;-77
2023/04/23 08:08:06;;;;;;;7.75;3.72;;;;;;;16.30;45.76;99689.84;5089481;28;20528;-77
2023/04/23 08:10:31;;;;;;;7.35;3.45;;;;;;;16.84;45.88;99751.56;5089441;28;20020;-77
2023/04/23 08:12:57;;;;;;;10.80;3.50;;;;;;;16.87;45.79;99744.97;5074384;28;20082;-77
2023/04/23 08:15:22;;;;;;;7.55;3.17;;;;;;;16.99;45.41;99756.59;5072841;28;20035;-78
2023/04/23 08:17:47;;;;;;;6.93;3.58;;;;;;;16.93;45.42;99720.13;5073057;28;20020;-78
2023/04/23 08:20:13;;;;;;;7.45;3.70;;;;;;;17.07;45.47;99718.19;5071556;28;20024;-77
2023/04/23 08:22:38;;;;;;;7.63;4.10;;;;;;;17.11;44.76;99703.41;5072504;28;20500;-77
2023/04/23 08:25:04;;;;;;;8.75;4.03;;;;;;;17.36;44.69;99722.09;5071188;28;20036;-77
2023/04/23 08:27:30;;;;;;;8.48;4.05;;;;;;;17.34;44.66;99700.16;5072188;28;20076;-78
2023/04/23 08:29:55;;;;;;;6.97;3.45;;;;;;;17.47;44.46;99692.84;5072254;28;20063;-78
2023/04/23 08:32:20;;;;;;;8.85;3.35;;;;;;;17.85;44.45;99749.88;5072954;28;20108;-78
2023/04/23 08:34:46;;;;;;;14.70;4.90;;;;;;;17.93;44.17;99721.00;5072190;28;20016;-78
2023/04/23 08:37:11;;;;;;;8.25;3.33;;;;;;;17.79;43.79;99684.75;5071962;28;20064;-79
2023/04/23 08:39:37;;;;;;;7.55;4.10;;;;;;;17.77;43.67;99666.28;5072279;28;20031;-77
2023/04/23 08:42:15;;;;;;;8.55;4.28;;;;;;;18.00;43.68;99681.69;5072075;28;20104;-78
2023/04/23 08:44:42;;;;;;;10.18;4.35;;;;;;;18.43;43.26;99734.22;5071993;28;20028;-76
2023/04/23 08:47:11;;;;;;;8.32;4.18;;;;;;;18.07;42.68;99658.38;5072063;28;20028;-75
2023/04/23 08:49:41;;;;;;;7.55;4.05;;;;;;;18.62;42.66;99729.72;5071901;28;20025;-77
2023/04/23 08:52:18;;;;;;;9.27;3.95;;;;;;;18.50;42.33;99692.19;5071610;28;20493;-77
2023/04/23 08:54:51;;;;;;;8.50;3.53;;;;;;;18.71;42.12;99694.41;5071675;28;20021;-77
2023/04/23 08:57:17;;;;;;;9.80;3.95;;;;;;;18.64;41.46;99658.09;5071566;28;20028;-76
2023/04/23 08:59:45;;;;;;;7.13;4.03;;;;;;;19.14;41.47;99716.63;5071616;28;20021;-77
2023/04/23 09:02:13;;;;;;;10.98;5.03;;;;;;;19.33;41.12;99712.84;5086873;28;20024;-77
2023/04/23 09:04:39;;;;;;;10.18;3.63;;;;;;;19.44;41.01;99704.03;5071546;28;20463;-77
2023/04/23 09:07:09;;;;;;;5.97;3.13;;;;;;;19.74;40.80;99713.84;5071424;28;20039;-77
2023/04/23 09:09:36;;;;;;;7.35;3.92;;;;;;;19.90;40.39;99702.41;5070308;28;20485;-77
2023/04/23 09:12:04;;;;;;;7.30;4.07;;;;;;;20.09;40.03;99711.97;5071428;28;20489;-77
2023/04/23 09:14:29;;;;;;;7.68;4.10;;;;;;;19.88;39.77;99634.84;5071517;28;20032;-78
2023/04/23 09:16:55;;;;;;;6.72;4.15;;;;;;;20.31;39.49;99696.88;5070191;28;20025;-77
2023/04/23 09:19:21;;;;;;;7.82;3.90;;;;;;;20.54;39.17;99713.97;5070123;28;20117;-78
2023/04/23 09:21:47;;;;;;;7.57;3.75;;;;;;;20.22;38.81;99642.00;5071346;28;20031;-77
2023/04/23 09:24:13;;;;;;;8.65;4.15;;;;;;;20.71;38.32;99706.78;5071304;28;20099;-78
2023/04/23 09:26:46;;;;;;;9.65;4.20;;;;;;;20.80;37.42;99702.66;5071156;28;20047;-77
2023/04/23 09:29:16;;;;;;;7.15;3.22;;;;;;;20.42;36.71;99638.09;5071453;28;20021;-79
2023/04/23 09:31:42;;;;;;;8.52;3.70;;;;;;;20.39;36.42;99614.41;5070958;28;20024;-79
2023/04/23 09:34:08;;;;;;;9.85;3.83;;;;;;;20.47;35.68;99617.56;5071188;28;20024;-77
2023/04/23 09:36:36;;;;;;;5.38;3.00;;;;;;;21.24;35.79;99698.38;5070900;28;20025;-77
2023/04/23 09:39:01;;;;;;;10.32;3.33;;;;;;;21.49;35.66;99689.91;5071010;28;20109;-77
2023/04/23 09:41:28;;;;;;;6.85;3.42;;;;;;;21.55;35.35;99659.41;5071243;28;20020;-77
2023/04/23 09:43:55;;;;;;;6.72;3.28;;;;;;;21.51;35.14;99626.00;5071164;28;20017;-77
2023/04/23 09:46:37;;;;;;;7.15;3.35;;;;;;;21.94;34.87;99683.59;5071396;28;20032;-78
2023/04/23 09:49:06;;;;;;;6.80;3.13;;;;;;;21.91;34.92;99659.88;5071414;28;20028;-77
2023/04/23 09:51:35;;;;;;;5.45;3.47;;;;;;;21.20;34.96;99634.63;5071255;28;20070;-77
2023/04/23 09:54:04;;;;;;;6.93;3.28;;;;;;;20.96;35.14;99587.53;5076613;28;20127;-77
2023/04/23 09:56:31;;;;;;;8.98;3.72;;;;;;;21.70;35.04;99674.94;5091308;28;20020;-77
2023/04/23 09:58:56;;;;;;;6.47;3.42;;;;;;;21.96;34.83;99683.34;5091341;28;20389;-77
2023/04/23 10:01:29;;;;;;;6.75;3.67;;;;;;;22.31;34.75;99670.38;5090917;28;20035;-77
2023/04/23 10:03:58;;;;;;;6.40;3.38;;;;;;;21.89;34.04;99594.81;5091197;28;20028;-76
2023/04/23 10:06:30;;;;;;;3.67;3.30;;;;;;;22.17;33.93;99637.66;5091190;28;20028;-77
2023/04/23 10:08:56;;;;;;;6.85;3.28;;;;;;;22.58;33.64;99673.09;5091216;28;20024;-76
2023/04/23 10:11:24;;;;;;;8.80;3.75;;;;;;;22.48;33.49;99659.53;5090946;28;20156;-77
2023/04/23 10:13:50;;;;;;;5.38;3.10;;;;;;;22.04;33.96;99661.44;5091054;28;20059;-76
2023/04/23 10:16:17;;;;;;;6.78;3.58;;;;;;;21.30;34.56;99616.03;5091074;28;20027;-77
2023/04/23 10:18:43;;;;;;;5.63;3.63;;;;;;;20.67;34.96;99592.16;5091128;28;20047;-76
2023/04/23 10:21:11;;;;;;;5.90;3.88;;;;;;;21.19;34.86;99625.78;5091135;28;20028;-77
2023/04/23 10:23:37;;;;;;;7.85;3.85;;;;;;;21.62;34.20;99644.97;5091232;28;20420;-77
2023/04/23 10:26:04;;;;;;;7.97;3.83;;;;;;;21.77;33.74;99621.00;5090837;28;20051;-77
2023/04/23 10:28:32;;;;;;;6.65;3.78;;;;;;;21.20;34.10;99581.75;5090989;28;20029;-78
2023/04/23 10:30:58;;;;;;;6.57;3.55;;;;;;;21.50;33.93;99573.34;5090887;28;20578;-77
2023/04/23 10:33:25;;;;;;;8.02;3.92;;;;;;;22.22;33.74;99630.72;5089640;28;20416;-75
2023/04/23 10:35:53;;;;;;;8.45;3.50;;;;;;;22.15;33.39;99553.72;5090833;28;20024;-77
2023/04/23 10:38:21;;;;;;;6.32;3.70;;;;;;;22.61;33.25;99594.56;5090743;28;20027;-77
2023/04/23 10:40:49;;;;;;;6.88;3.38;;;;;;;23.15;32.76;99626.81;5090696;28;20030;-76
2023/04/23 10:43:16;;;;;;;7.93;3.65;;;;;;;23.11;31.91;99550.31;5091000;28;20046;-77
2023/04/23 10:45:42;;;;;;;9.57;3.20;;;;;;;23.52;31.34;99572.06;5094338;28;20035;-77
2023/04/23 10:48:07;;;;;;;6.20;3.38;;;;;;;23.59;31.07;99568.09;5092999;28;20082;-77
2023/04/23 10:50:36;;;;;;;6.70;3.40;;;;;;;23.58;30.70;99561.09;5094324;28;20024;-77
2023/04/23 10:53:02;;;;;;;6.97;3.45;;;;;;;23.93;30.25;99600.91;5094329;28;20428;-77
2023/04/23 10:55:31;;;;;;;8.23;3.45;;;;;;;24.04;29.60;99593.66;5094269;28;20078;-77
2023/04/23 10:57:59;;;;;;;6.07;3.33;;;;;;;23.96;30.08;99553.72;5092962;28;20488;-77
2023/04/23 11:00:26;;;;;;;5.15;3.42;;;;;;;23.79;30.14;99505.41;5093935;28;20397;-77
2023/04/23 11:02:52;;;;;;;6.80;3.35;;;;;;;24.53;29.95;99602.19;5093989;28;20081;-77
2023/04/23 11:05:17;;;;;;;5.88;3.72;;;;;;;24.80;29.41;99604.63;5094087;28;20024;-76
2023/04/23 11:08:01;;;;;;;6.90;3.70;;;;;;;24.91;29.19;99591.94;5094137;28;20039;-77
2023/04/23 11:10:27;;;;;;;9.25;3.53;;;;;;;24.39;29.25;99544.38;5093993;28;20031;-76
2023/04/23 11:12:55;;;;;;;7.20;3.50;;;;;;;24.00;29.38;99549.41;5093965;28;20012;-78
2023/04/23 11:15:20;;;;;;;6.63;3.20;;;;;;;23.61;29.94;99544.41;5092613;28;20028;-77
2023/04/23 11:17:47;;;;;;;4.43;3.30;;;;;;;23.79;30.07;99597.06;5093909;28;20028;-78
2023/04/23 11:20:13;;;;;;;5.80;3.00;;;;;;;23.67;29.35;99597.25;5093807;28;20493;-78
2023/04/23 11:22:44;;;;;;;8.02;3.17;;;;;;;22.94;29.75;99544.22;5093637;28;20497;-77
2023/04/23 11:25:11;;;;;;;7.22;3.17;;;;;;;22.63;30.05;99554.75;5093618;28;20458;-77